Estación Meteorológica Peña el Pijo (Robertgarden) [ 02/03/23 03:44:56 CET ]

Fecha Hora Presion(HPa) Temp (°C) Humedad % Rocio (°C) Viento ( m/s) Direccion Lluvia 1Hora(mm) Lluvia 24H(mm) LLuvia Total(mm)
2012-Sep-20 01:01:18 1013.300 17.5 78 13.6         178.19
2012-Sep-20 02:01:18 1013.000 17.8 77 13.7         178.19
2012-Sep-20 03:01:45 1012.800 17.8 76 13.5         178.19
2012-Sep-20 04:03:33 1012.600 16.3 80 12.9         178.19
2012-Sep-20 05:10:08 1012.100 16.9 78 13.0         178.19
2012-Sep-20 06:09:09 1011.800 17.1 77 13.0         178.19
2012-Sep-20 07:01:17 1012.000 16.8 78 12.9         178.19
2012-Sep-20 08:01:16 1012.400 16.9 76 12.6         178.19
2012-Sep-20 09:01:18 1012.900 17.2 76 12.9         178.19
2012-Sep-20 10:01:22 1013.500 18.3 70 12.8         178.19
2012-Sep-20 11:01:12 1013.500 18.9 65 12.2         178.19
2012-Sep-20 12:01:16 1013.600 21.9 56 12.7         178.19
2012-Sep-20 13:01:17 1013.300 24.3 51 13.6         178.19
2012-Sep-20 14:01:13 1012.700 26.1 47 13.9         178.19
2012-Sep-20 15:01:13 1012.200 26.7 43 13.1 0.3 ENE     178.19
2012-Sep-20 16:01:13 1011.800 26.6 43 13.0 3.1 ENE     178.19
2012-Sep-20 17:01:14 1011.500 27.2 43 13.5 2.4 SW     178.19
2012-Sep-20 18:01:12 1011.600 25.9 46 13.3         178.19
2012-Sep-20 19:01:14 1011.900 22.6 55 13.0 0.4 E     178.19
2012-Sep-20 20:01:16 1012.100 20.6 61 12.8         178.19
2012-Sep-20 21:01:13 1012.500 18.9 65 12.2         178.19
2012-Sep-20 22:01:12 1013.000 17.6 69 11.9         178.19
2012-Sep-20 23:01:12 1013.300 16.8 74 12.1 1.6 NE     178.19

Temperatura Máxima:27°    Temperatura Mínima:16°
Presión Máxima:1013.600 Hpa    Presión Mínima:1011.500 Hpa


Volver